sensor_id;sensor_type;location;lat;lon;timestamp;P1;durP1;ratioP1;P2;durP2;ratioP2
13981;SDS011;7065;50.880;5.502;2023-06-10T00:01:44;8.38;;;7.57;;
13981;SDS011;7065;50.880;5.502;2023-06-10T00:04:14;8.70;;;7.88;;
13981;SDS011;7065;50.880;5.502;2023-06-10T00:06:41;8.60;;;7.85;;
13981;SDS011;7065;50.880;5.502;2023-06-10T00:09:07;9.38;;;8.57;;
13981;SDS011;7065;50.880;5.502;2023-06-10T00:11:36;9.70;;;8.70;;
13981;SDS011;7065;50.880;5.502;2023-06-10T00:14:02;9.35;;;8.65;;
13981;SDS011;7065;50.880;5.502;2023-06-10T00:16:28;9.25;;;8.45;;
13981;SDS011;7065;50.880;5.502;2023-06-10T00:18:55;8.68;;;8.00;;
13981;SDS011;7065;50.880;5.502;2023-06-10T00:21:25;9.13;;;8.23;;
13981;SDS011;7065;50.880;5.502;2023-06-10T00:23:55;8.73;;;7.93;;
13981;SDS011;7065;50.880;5.502;2023-06-10T00:26:23;9.43;;;8.50;;
13981;SDS011;7065;50.880;5.502;2023-06-10T00:28:49;9.02;;;8.23;;
13981;SDS011;7065;50.880;5.502;2023-06-10T00:31:15;8.90;;;8.10;;
13981;SDS011;7065;50.880;5.502;2023-06-10T00:33:41;9.40;;;8.18;;
13981;SDS011;7065;50.880;5.502;2023-06-10T00:36:07;9.35;;;8.48;;
13981;SDS011;7065;50.880;5.502;2023-06-10T00:38:32;8.63;;;7.90;;
13981;SDS011;7065;50.880;5.502;2023-06-10T00:40:59;8.80;;;8.00;;
13981;SDS011;7065;50.880;5.502;2023-06-10T00:43:25;8.55;;;7.93;;
13981;SDS011;7065;50.880;5.502;2023-06-10T00:45:51;9.07;;;8.27;;
13981;SDS011;7065;50.880;5.502;2023-06-10T00:48:17;9.15;;;8.43;;
13981;SDS011;7065;50.880;5.502;2023-06-10T00:50:43;8.63;;;7.72;;
13981;SDS011;7065;50.880;5.502;2023-06-10T00:53:11;9.73;;;8.93;;
13981;SDS011;7065;50.880;5.502;2023-06-10T00:55:37;9.13;;;8.32;;
13981;SDS011;7065;50.880;5.502;2023-06-10T00:58:04;9.52;;;8.80;;
13981;SDS011;7065;50.880;5.502;2023-06-10T01:00:30;9.27;;;8.57;;
13981;SDS011;7065;50.880;5.502;2023-06-10T01:02:55;9.07;;;8.32;;
13981;SDS011;7065;50.880;5.502;2023-06-10T01:05:22;9.45;;;8.65;;
13981;SDS011;7065;50.880;5.502;2023-06-10T01:10:41;10.10;;;9.10;;
13981;SDS011;7065;50.880;5.502;2023-06-10T01:13:11;10.50;;;9.50;;
13981;SDS011;7065;50.880;5.502;2023-06-10T01:15:39;9.60;;;8.80;;
13981;SDS011;7065;50.880;5.502;2023-06-10T01:18:05;10.73;;;9.80;;
13981;SDS011;7065;50.880;5.502;2023-06-10T01:20:40;9.82;;;9.00;;
13981;SDS011;7065;50.880;5.502;2023-06-10T01:23:08;9.90;;;8.93;;
13981;SDS011;7065;50.880;5.502;2023-06-10T01:25:47;10.27;;;9.45;;
13981;SDS011;7065;50.880;5.502;2023-06-10T01:28:48;10.43;;;9.48;;
13981;SDS011;7065;50.880;5.502;2023-06-10T01:31:20;10.40;;;9.50;;
13981;SDS011;7065;50.880;5.502;2023-06-10T01:34:06;9.50;;;8.70;;
13981;SDS011;7065;50.880;5.502;2023-06-10T01:36:35;10.65;;;9.65;;
13981;SDS011;7065;50.880;5.502;2023-06-10T01:39:02;9.90;;;8.95;;
13981;SDS011;7065;50.880;5.502;2023-06-10T01:41:29;10.65;;;9.65;;
13981;SDS011;7065;50.880;5.502;2023-06-10T01:43:56;10.70;;;9.20;;
13981;SDS011;7065;50.880;5.502;2023-06-10T01:46:22;10.35;;;9.45;;
13981;SDS011;7065;50.880;5.502;2023-06-10T01:48:48;9.60;;;8.80;;
13981;SDS011;7065;50.880;5.502;2023-06-10T01:51:13;10.88;;;9.88;;
13981;SDS011;7065;50.880;5.502;2023-06-10T01:53:40;10.25;;;9.45;;
13981;SDS011;7065;50.880;5.502;2023-06-10T01:56:05;11.88;;;10.80;;
13981;SDS011;7065;50.880;5.502;2023-06-10T01:58:31;10.50;;;9.65;;
13981;SDS011;7065;50.880;5.502;2023-06-10T02:00:57;10.82;;;9.90;;
13981;SDS011;7065;50.880;5.502;2023-06-10T02:03:23;10.60;;;9.68;;
13981;SDS011;7065;50.880;5.502;2023-06-10T02:05:49;10.13;;;9.23;;
13981;SDS011;7065;50.880;5.502;2023-06-10T02:08:15;10.82;;;9.90;;
13981;SDS011;7065;50.880;5.502;2023-06-10T02:10:41;10.50;;;9.70;;
13981;SDS011;7065;50.880;5.502;2023-06-10T02:13:06;10.25;;;9.35;;
13981;SDS011;7065;50.880;5.502;2023-06-10T02:15:32;10.30;;;9.52;;
13981;SDS011;7065;50.880;5.502;2023-06-10T02:17:58;9.85;;;9.15;;
13981;SDS011;7065;50.880;5.502;2023-06-10T02:20:24;12.48;;;9.68;;
13981;SDS011;7065;50.880;5.502;2023-06-10T02:22:50;10.68;;;9.73;;
13981;SDS011;7065;50.880;5.502;2023-06-10T02:25:16;11.95;;;10.95;;
13981;SDS011;7065;50.880;5.502;2023-06-10T02:27:41;11.13;;;10.25;;
13981;SDS011;7065;50.880;5.502;2023-06-10T02:30:07;11.43;;;10.40;;
13981;SDS011;7065;50.880;5.502;2023-06-10T02:32:35;11.57;;;10.68;;
13981;SDS011;7065;50.880;5.502;2023-06-10T02:35:01;11.40;;;10.40;;
13981;SDS011;7065;50.880;5.502;2023-06-10T02:37:27;12.10;;;11.10;;
13981;SDS011;7065;50.880;5.502;2023-06-10T02:39:53;10.65;;;9.73;;
13981;SDS011;7065;50.880;5.502;2023-06-10T02:42:19;11.00;;;10.13;;
13981;SDS011;7065;50.880;5.502;2023-06-10T02:44:44;10.55;;;9.75;;
13981;SDS011;7065;50.880;5.502;2023-06-10T02:47:11;11.25;;;10.35;;
13981;SDS011;7065;50.880;5.502;2023-06-10T02:49:36;11.73;;;10.63;;
13981;SDS011;7065;50.880;5.502;2023-06-10T02:52:02;12.57;;;11.40;;
13981;SDS011;7065;50.880;5.502;2023-06-10T02:54:28;11.80;;;10.73;;
13981;SDS011;7065;50.880;5.502;2023-06-10T02:56:53;11.50;;;10.57;;
13981;SDS011;7065;50.880;5.502;2023-06-10T02:59:20;12.18;;;11.02;;
13981;SDS011;7065;50.880;5.502;2023-06-10T03:01:47;11.77;;;10.77;;
13981;SDS011;7065;50.880;5.502;2023-06-10T03:04:12;11.70;;;10.80;;
13981;SDS011;7065;50.880;5.502;2023-06-10T03:06:41;12.75;;;11.65;;
13981;SDS011;7065;50.880;5.502;2023-06-10T03:09:07;12.57;;;11.48;;
13981;SDS011;7065;50.880;5.502;2023-06-10T03:11:33;11.98;;;11.07;;
13981;SDS011;7065;50.880;5.502;2023-06-10T03:13:58;11.20;;;10.25;;
13981;SDS011;7065;50.880;5.502;2023-06-10T03:16:24;10.98;;;10.10;;
13981;SDS011;7065;50.880;5.502;2023-06-10T03:18:50;12.07;;;11.07;;
13981;SDS011;7065;50.880;5.502;2023-06-10T03:21:17;12.23;;;11.23;;
13981;SDS011;7065;50.880;5.502;2023-06-10T03:23:42;12.30;;;11.10;;
13981;SDS011;7065;50.880;5.502;2023-06-10T03:26:08;12.65;;;11.65;;
13981;SDS011;7065;50.880;5.502;2023-06-10T03:28:35;12.57;;;11.68;;
13981;SDS011;7065;50.880;5.502;2023-06-10T03:31:01;12.20;;;11.25;;
13981;SDS011;7065;50.880;5.502;2023-06-10T03:33:27;13.10;;;11.98;;
13981;SDS011;7065;50.880;5.502;2023-06-10T03:35:53;12.00;;;11.10;;
13981;SDS011;7065;50.880;5.502;2023-06-10T03:38:21;12.73;;;11.70;;
13981;SDS011;7065;50.880;5.502;2023-06-10T03:40:47;13.10;;;12.00;;
13981;SDS011;7065;50.880;5.502;2023-06-10T03:43:12;12.48;;;11.48;;
13981;SDS011;7065;50.880;5.502;2023-06-10T03:45:38;12.02;;;11.13;;
13981;SDS011;7065;50.880;5.502;2023-06-10T03:48:04;12.25;;;11.18;;
13981;SDS011;7065;50.880;5.502;2023-06-10T03:50:31;12.68;;;11.63;;
13981;SDS011;7065;50.880;5.502;2023-06-10T03:52:57;12.80;;;11.70;;
13981;SDS011;7065;50.880;5.502;2023-06-10T03:55:23;12.98;;;11.77;;
13981;SDS011;7065;50.880;5.502;2023-06-10T03:57:49;13.68;;;12.52;;
13981;SDS011;7065;50.880;5.502;2023-06-10T04:00:15;12.40;;;11.30;;
13981;SDS011;7065;50.880;5.502;2023-06-10T04:02:42;13.15;;;11.95;;
13981;SDS011;7065;50.880;5.502;2023-06-10T04:05:13;13.38;;;12.07;;
13981;SDS011;7065;50.880;5.502;2023-06-10T04:07:41;13.05;;;11.95;;
13981;SDS011;7065;50.880;5.502;2023-06-10T04:10:11;13.13;;;11.93;;
13981;SDS011;7065;50.880;5.502;2023-06-10T04:12:37;13.43;;;12.20;;
13981;SDS011;7065;50.880;5.502;2023-06-10T04:15:03;12.95;;;11.65;;
13981;SDS011;7065;50.880;5.502;2023-06-10T04:17:29;12.30;;;11.05;;
13981;SDS011;7065;50.880;5.502;2023-06-10T04:19:55;12.88;;;11.75;;
13981;SDS011;7065;50.880;5.502;2023-06-10T04:22:22;12.93;;;11.63;;
13981;SDS011;7065;50.880;5.502;2023-06-10T04:24:47;13.18;;;11.98;;
13981;SDS011;7065;50.880;5.502;2023-06-10T04:27:13;13.40;;;12.07;;
13981;SDS011;7065;50.880;5.502;2023-06-10T04:29:39;13.50;;;12.40;;
13981;SDS011;7065;50.880;5.502;2023-06-10T04:32:05;13.65;;;12.40;;
13981;SDS011;7065;50.880;5.502;2023-06-10T04:34:32;13.18;;;11.82;;
13981;SDS011;7065;50.880;5.502;2023-06-10T04:36:58;12.95;;;11.85;;
13981;SDS011;7065;50.880;5.502;2023-06-10T04:39:24;13.27;;;12.25;;
13981;SDS011;7065;50.880;5.502;2023-06-10T04:41:51;13.80;;;12.38;;
13981;SDS011;7065;50.880;5.502;2023-06-10T04:44:17;14.43;;;13.10;;
13981;SDS011;7065;50.880;5.502;2023-06-10T04:46:43;13.82;;;12.55;;
13981;SDS011;7065;50.880;5.502;2023-06-10T04:49:10;13.10;;;11.95;;
13981;SDS011;7065;50.880;5.502;2023-06-10T04:51:36;13.95;;;12.65;;
13981;SDS011;7065;50.880;5.502;2023-06-10T04:54:02;13.85;;;12.57;;
13981;SDS011;7065;50.880;5.502;2023-06-10T04:56:29;13.65;;;12.45;;
13981;SDS011;7065;50.880;5.502;2023-06-10T04:58:57;12.50;;;11.30;;
13981;SDS011;7065;50.880;5.502;2023-06-10T05:01:23;12.95;;;11.85;;
13981;SDS011;7065;50.880;5.502;2023-06-10T05:03:49;12.32;;;11.13;;
13981;SDS011;7065;50.880;5.502;2023-06-10T05:06:14;12.40;;;11.20;;
13981;SDS011;7065;50.880;5.502;2023-06-10T05:08:40;11.98;;;11.00;;
13981;SDS011;7065;50.880;5.502;2023-06-10T05:11:06;12.93;;;11.82;;
13981;SDS011;7065;50.880;5.502;2023-06-10T05:13:32;13.02;;;11.75;;
13981;SDS011;7065;50.880;5.502;2023-06-10T05:15:57;12.85;;;11.60;;
13981;SDS011;7065;50.880;5.502;2023-06-10T05:18:23;12.82;;;11.52;;
13981;SDS011;7065;50.880;5.502;2023-06-10T05:20:50;12.70;;;11.20;;
13981;SDS011;7065;50.880;5.502;2023-06-10T05:23:16;13.00;;;11.77;;
13981;SDS011;7065;50.880;5.502;2023-06-10T05:25:42;12.30;;;11.00;;
13981;SDS011;7065;50.880;5.502;2023-06-10T05:28:08;11.45;;;10.52;;
13981;SDS011;7065;50.880;5.502;2023-06-10T05:30:38;12.27;;;11.15;;
13981;SDS011;7065;50.880;5.502;2023-06-10T05:33:04;12.05;;;10.95;;
13981;SDS011;7065;50.880;5.502;2023-06-10T05:35:30;11.98;;;10.88;;
13981;SDS011;7065;50.880;5.502;2023-06-10T05:37:56;11.13;;;10.15;;
13981;SDS011;7065;50.880;5.502;2023-06-10T05:40:22;10.32;;;9.52;;
13981;SDS011;7065;50.880;5.502;2023-06-10T05:42:48;11.93;;;10.60;;
13981;SDS011;7065;50.880;5.502;2023-06-10T05:45:14;11.48;;;10.30;;
13981;SDS011;7065;50.880;5.502;2023-06-10T05:47:41;11.18;;;10.27;;
13981;SDS011;7065;50.880;5.502;2023-06-10T05:50:06;11.75;;;10.60;;
13981;SDS011;7065;50.880;5.502;2023-06-10T05:52:34;11.07;;;10.18;;
13981;SDS011;7065;50.880;5.502;2023-06-10T05:55:00;11.38;;;10.27;;
13981;SDS011;7065;50.880;5.502;2023-06-10T05:57:26;11.95;;;10.85;;
13981;SDS011;7065;50.880;5.502;2023-06-10T05:59:53;11.30;;;10.10;;
13981;SDS011;7065;50.880;5.502;2023-06-10T06:02:18;11.13;;;10.13;;
13981;SDS011;7065;50.880;5.502;2023-06-10T06:04:44;10.80;;;9.75;;
13981;SDS011;7065;50.880;5.502;2023-06-10T06:07:10;10.70;;;9.70;;
13981;SDS011;7065;50.880;5.502;2023-06-10T06:09:36;11.23;;;10.23;;
13981;SDS011;7065;50.880;5.502;2023-06-10T06:12:02;11.32;;;10.13;;
13981;SDS011;7065;50.880;5.502;2023-06-10T06:14:30;12.38;;;10.07;;
13981;SDS011;7065;50.880;5.502;2023-06-10T06:16:57;10.30;;;9.40;;
13981;SDS011;7065;50.880;5.502;2023-06-10T06:19:22;9.45;;;8.60;;
13981;SDS011;7065;50.880;5.502;2023-06-10T06:21:48;11.15;;;9.88;;
13981;SDS011;7065;50.880;5.502;2023-06-10T06:24:15;9.98;;;9.00;;
13981;SDS011;7065;50.880;5.502;2023-06-10T06:26:41;8.95;;;8.25;;
13981;SDS011;7065;50.880;5.502;2023-06-10T06:29:06;9.90;;;9.00;;
13981;SDS011;7065;50.880;5.502;2023-06-10T06:31:32;10.88;;;8.65;;
13981;SDS011;7065;50.880;5.502;2023-06-10T06:33:58;10.65;;;9.35;;
13981;SDS011;7065;50.880;5.502;2023-06-10T06:36:24;10.13;;;9.25;;
13981;SDS011;7065;50.880;5.502;2023-06-10T06:38:49;10.95;;;9.35;;
13981;SDS011;7065;50.880;5.502;2023-06-10T06:41:15;10.85;;;9.88;;
13981;SDS011;7065;50.880;5.502;2023-06-10T06:43:41;9.70;;;8.90;;
13981;SDS011;7065;50.880;5.502;2023-06-10T06:46:08;9.30;;;8.38;;
13981;SDS011;7065;50.880;5.502;2023-06-10T06:48:34;9.65;;;8.82;;
13981;SDS011;7065;50.880;5.502;2023-06-10T06:51:00;10.18;;;9.20;;
13981;SDS011;7065;50.880;5.502;2023-06-10T06:53:26;10.73;;;9.63;;
13981;SDS011;7065;50.880;5.502;2023-06-10T06:55:51;10.45;;;9.45;;
13981;SDS011;7065;50.880;5.502;2023-06-10T06:58:17;11.25;;;10.23;;
13981;SDS011;7065;50.880;5.502;2023-06-10T07:00:43;9.95;;;9.05;;
13981;SDS011;7065;50.880;5.502;2023-06-10T07:03:08;10.40;;;9.35;;
13981;SDS011;7065;50.880;5.502;2023-06-10T07:05:34;10.35;;;9.23;;
13981;SDS011;7065;50.880;5.502;2023-06-10T07:08:00;9.25;;;8.50;;
13981;SDS011;7065;50.880;5.502;2023-06-10T07:10:26;8.52;;;7.82;;
13981;SDS011;7065;50.880;5.502;2023-06-10T07:12:52;9.68;;;8.85;;
13981;SDS011;7065;50.880;5.502;2023-06-10T07:15:18;10.35;;;9.10;;
13981;SDS011;7065;50.880;5.502;2023-06-10T07:17:44;9.88;;;8.88;;
13981;SDS011;7065;50.880;5.502;2023-06-10T07:20:11;8.70;;;7.88;;
13981;SDS011;7065;50.880;5.502;2023-06-10T07:22:38;9.52;;;8.73;;
13981;SDS011;7065;50.880;5.502;2023-06-10T07:25:06;10.10;;;9.23;;
13981;SDS011;7065;50.880;5.502;2023-06-10T07:27:32;10.60;;;9.50;;
13981;SDS011;7065;50.880;5.502;2023-06-10T07:29:58;9.82;;;8.30;;
13981;SDS011;7065;50.880;5.502;2023-06-10T07:32:25;9.82;;;8.93;;
13981;SDS011;7065;50.880;5.502;2023-06-10T07:34:51;8.70;;;8.00;;
13981;SDS011;7065;50.880;5.502;2023-06-10T07:37:17;9.38;;;8.48;;
13981;SDS011;7065;50.880;5.502;2023-06-10T07:39:44;8.60;;;7.90;;
13981;SDS011;7065;50.880;5.502;2023-06-10T07:42:10;8.88;;;8.18;;
13981;SDS011;7065;50.880;5.502;2023-06-10T07:44:36;7.93;;;7.32;;
13981;SDS011;7065;50.880;5.502;2023-06-10T07:47:01;9.63;;;8.35;;
13981;SDS011;7065;50.880;5.502;2023-06-10T07:49:27;8.25;;;7.60;;
13981;SDS011;7065;50.880;5.502;2023-06-10T07:51:54;8.45;;;7.65;;
13981;SDS011;7065;50.880;5.502;2023-06-10T07:54:22;9.60;;;8.70;;
13981;SDS011;7065;50.880;5.502;2023-06-10T07:56:48;8.75;;;7.95;;
13981;SDS011;7065;50.880;5.502;2023-06-10T07:59:16;8.82;;;8.02;;
13981;SDS011;7065;50.880;5.502;2023-06-10T08:01:42;9.23;;;8.32;;
13981;SDS011;7065;50.880;5.502;2023-06-10T08:04:08;9.45;;;8.55;;
13981;SDS011;7065;50.880;5.502;2023-06-10T08:06:34;8.35;;;7.55;;
13981;SDS011;7065;50.880;5.502;2023-06-10T08:09:02;7.93;;;7.22;;
13981;SDS011;7065;50.880;5.502;2023-06-10T08:11:28;8.30;;;7.57;;
13981;SDS011;7065;50.880;5.502;2023-06-10T08:13:54;8.48;;;7.75;;
13981;SDS011;7065;50.880;5.502;2023-06-10T08:16:20;8.63;;;7.82;;
13981;SDS011;7065;50.880;5.502;2023-06-10T08:18:46;8.90;;;8.00;;
13981;SDS011;7065;50.880;5.502;2023-06-10T08:21:11;9.15;;;8.20;;
13981;SDS011;7065;50.880;5.502;2023-06-10T08:23:37;8.88;;;8.05;;
13981;SDS011;7065;50.880;5.502;2023-06-10T08:26:03;8.45;;;7.82;;
13981;SDS011;7065;50.880;5.502;2023-06-10T08:28:29;8.73;;;8.02;;
13981;SDS011;7065;50.880;5.502;2023-06-10T08:30:54;7.68;;;6.97;;
13981;SDS011;7065;50.880;5.502;2023-06-10T08:33:20;8.88;;;7.97;;
13981;SDS011;7065;50.880;5.502;2023-06-10T08:35:46;8.95;;;8.25;;
13981;SDS011;7065;50.880;5.502;2023-06-10T08:38:11;8.63;;;7.78;;
13981;SDS011;7065;50.880;5.502;2023-06-10T08:40:37;7.75;;;7.15;;
13981;SDS011;7065;50.880;5.502;2023-06-10T08:43:05;8.02;;;7.38;;
13981;SDS011;7065;50.880;5.502;2023-06-10T08:45:34;8.50;;;7.80;;
13981;SDS011;7065;50.880;5.502;2023-06-10T08:48:02;8.65;;;7.90;;
13981;SDS011;7065;50.880;5.502;2023-06-10T08:50:32;8.48;;;7.78;;
13981;SDS011;7065;50.880;5.502;2023-06-10T08:53:01;8.45;;;7.50;;
13981;SDS011;7065;50.880;5.502;2023-06-10T08:55:31;8.15;;;7.35;;
13981;SDS011;7065;50.880;5.502;2023-06-10T08:58:01;7.32;;;6.70;;
13981;SDS011;7065;50.880;5.502;2023-06-10T09:00:28;8.73;;;7.50;;
13981;SDS011;7065;50.880;5.502;2023-06-10T09:02:55;8.73;;;7.80;;
13981;SDS011;7065;50.880;5.502;2023-06-10T09:05:22;8.70;;;7.82;;
13981;SDS011;7065;50.880;5.502;2023-06-10T09:07:48;7.47;;;6.75;;
13981;SDS011;7065;50.880;5.502;2023-06-10T09:10:15;8.13;;;7.22;;
13981;SDS011;7065;50.880;5.502;2023-06-10T09:12:41;8.90;;;8.10;;
13981;SDS011;7065;50.880;5.502;2023-06-10T09:15:07;8.07;;;7.32;;
13981;SDS011;7065;50.880;5.502;2023-06-10T09:17:34;7.72;;;7.03;;
13981;SDS011;7065;50.880;5.502;2023-06-10T09:20:02;8.32;;;7.53;;
13981;SDS011;7065;50.880;5.502;2023-06-10T09:22:28;7.95;;;7.15;;
13981;SDS011;7065;50.880;5.502;2023-06-10T09:27:30;8.73;;;7.93;;
13981;SDS011;7065;50.880;5.502;2023-06-10T09:29:57;7.80;;;7.00;;
13981;SDS011;7065;50.880;5.502;2023-06-10T09:32:23;8.50;;;7.50;;
13981;SDS011;7065;50.880;5.502;2023-06-10T09:34:50;8.50;;;7.40;;
13981;SDS011;7065;50.880;5.502;2023-06-10T09:37:24;10.57;;;7.28;;
13981;SDS011;7065;50.880;5.502;2023-06-10T09:40:03;8.27;;;7.38;;
13981;SDS011;7065;50.880;5.502;2023-06-10T09:42:33;7.53;;;6.85;;
13981;SDS011;7065;50.880;5.502;2023-06-10T09:45:03;8.60;;;7.55;;
13981;SDS011;7065;50.880;5.502;2023-06-10T09:47:29;7.50;;;6.88;;
13981;SDS011;7065;50.880;5.502;2023-06-10T09:49:55;8.13;;;7.38;;
13981;SDS011;7065;50.880;5.502;2023-06-10T09:52:21;7.95;;;7.15;;
13981;SDS011;7065;50.880;5.502;2023-06-10T09:54:48;7.50;;;6.68;;
13981;SDS011;7065;50.880;5.502;2023-06-10T09:57:14;9.30;;;8.00;;
13981;SDS011;7065;50.880;5.502;2023-06-10T09:59:42;8.20;;;7.40;;
13981;SDS011;7065;50.880;5.502;2023-06-10T10:02:13;7.95;;;7.30;;
13981;SDS011;7065;50.880;5.502;2023-06-10T10:04:43;7.53;;;6.93;;
13981;SDS011;7065;50.880;5.502;2023-06-10T10:07:10;7.85;;;7.00;;
13981;SDS011;7065;50.880;5.502;2023-06-10T10:09:40;8.00;;;7.30;;
13981;SDS011;7065;50.880;5.502;2023-06-10T10:12:10;8.50;;;7.70;;
13981;SDS011;7065;50.880;5.502;2023-06-10T10:14:37;7.60;;;6.97;;
13981;SDS011;7065;50.880;5.502;2023-06-10T10:17:09;7.78;;;7.07;;
13981;SDS011;7065;50.880;5.502;2023-06-10T10:19:48;9.23;;;7.22;;
13981;SDS011;7065;50.880;5.502;2023-06-10T10:22:29;7.97;;;7.28;;
13981;SDS011;7065;50.880;5.502;2023-06-10T10:25:02;8.77;;;7.88;;
13981;SDS011;7065;50.880;5.502;2023-06-10T10:27:44;7.75;;;7.05;;
13981;SDS011;7065;50.880;5.502;2023-06-10T10:30:14;7.57;;;6.75;;
13981;SDS011;7065;50.880;5.502;2023-06-10T10:33:28;7.43;;;6.72;;
13981;SDS011;7065;50.880;5.502;2023-06-10T10:35:33;7.28;;;6.55;;
13981;SDS011;7065;50.880;5.502;2023-06-10T10:38:00;8.02;;;6.93;;
13981;SDS011;7065;50.880;5.502;2023-06-10T10:40:27;7.65;;;6.95;;
13981;SDS011;7065;50.880;5.502;2023-06-10T10:42:55;7.35;;;6.65;;
13981;SDS011;7065;50.880;5.502;2023-06-10T10:45:23;6.55;;;6.05;;
13981;SDS011;7065;50.880;5.502;2023-06-10T10:47:52;7.10;;;6.50;;
13981;SDS011;7065;50.880;5.502;2023-06-10T10:50:21;7.75;;;6.78;;
13981;SDS011;7065;50.880;5.502;2023-06-10T10:52:51;7.95;;;7.15;;
13981;SDS011;7065;50.880;5.502;2023-06-10T10:55:17;7.18;;;6.57;;
13981;SDS011;7065;50.880;5.502;2023-06-10T10:57:43;7.13;;;6.47;;
13981;SDS011;7065;50.880;5.502;2023-06-10T11:00:09;7.57;;;6.93;;
13981;SDS011;7065;50.880;5.502;2023-06-10T11:02:43;6.93;;;6.40;;
13981;SDS011;7065;50.880;5.502;2023-06-10T11:05:10;6.60;;;6.00;;
13981;SDS011;7065;50.880;5.502;2023-06-10T11:07:38;6.90;;;6.30;;
13981;SDS011;7065;50.880;5.502;2023-06-10T11:10:11;7.15;;;6.45;;
13981;SDS011;7065;50.880;5.502;2023-06-10T11:12:51;6.75;;;6.15;;
13981;SDS011;7065;50.880;5.502;2023-06-10T11:15:27;7.78;;;6.45;;
13981;SDS011;7065;50.880;5.502;2023-06-10T11:20:45;15.30;;;7.45;;
13981;SDS011;7065;50.880;5.502;2023-06-10T11:28:42;8.60;;;6.78;;
13981;SDS011;7065;50.880;5.502;2023-06-10T11:31:28;13.40;;;7.03;;
13981;SDS011;7065;50.880;5.502;2023-06-10T11:34:21;20.83;;;7.20;;
13981;SDS011;7065;50.880;5.502;2023-06-10T11:36:51;6.15;;;5.65;;
13981;SDS011;7065;50.880;5.502;2023-06-10T11:39:19;11.90;;;6.60;;
13981;SDS011;7065;50.880;5.502;2023-06-10T11:41:45;11.90;;;6.95;;
13981;SDS011;7065;50.880;5.502;2023-06-10T11:44:12;7.70;;;6.50;;
13981;SDS011;7065;50.880;5.502;2023-06-10T11:46:38;7.55;;;6.53;;
13981;SDS011;7065;50.880;5.502;2023-06-10T11:49:05;8.52;;;6.60;;
13981;SDS011;7065;50.880;5.502;2023-06-10T11:51:35;12.70;;;6.70;;
13981;SDS011;7065;50.880;5.502;2023-06-10T11:54:03;7.15;;;6.45;;
13981;SDS011;7065;50.880;5.502;2023-06-10T11:56:29;11.00;;;6.78;;
13981;SDS011;7065;50.880;5.502;2023-06-10T11:59:00;8.95;;;5.70;;
13981;SDS011;7065;50.880;5.502;2023-06-10T12:01:35;8.40;;;5.95;;
13981;SDS011;7065;50.880;5.502;2023-06-10T12:09:05;6.45;;;5.80;;
13981;SDS011;7065;50.880;5.502;2023-06-10T12:11:31;6.75;;;6.25;;
13981;SDS011;7065;50.880;5.502;2023-06-10T12:13:58;7.03;;;6.18;;
13981;SDS011;7065;50.880;5.502;2023-06-10T12:16:23;6.97;;;6.43;;
13981;SDS011;7065;50.880;5.502;2023-06-10T12:18:49;6.80;;;6.20;;
13981;SDS011;7065;50.880;5.502;2023-06-10T12:21:16;7.43;;;6.82;;
13981;SDS011;7065;50.880;5.502;2023-06-10T12:26:37;7.47;;;6.78;;
13981;SDS011;7065;50.880;5.502;2023-06-10T12:29:23;7.25;;;6.50;;
13981;SDS011;7065;50.880;5.502;2023-06-10T12:32:00;7.28;;;6.57;;
13981;SDS011;7065;50.880;5.502;2023-06-10T12:34:30;8.30;;;6.72;;
13981;SDS011;7065;50.880;5.502;2023-06-10T12:37:01;6.07;;;5.57;;
13981;SDS011;7065;50.880;5.502;2023-06-10T12:39:29;7.00;;;6.22;;
13981;SDS011;7065;50.880;5.502;2023-06-10T12:41:58;7.75;;;6.32;;
13981;SDS011;7065;50.880;5.502;2023-06-10T12:44:31;6.68;;;6.03;;
13981;SDS011;7065;50.880;5.502;2023-06-10T12:46:58;6.80;;;6.25;;
13981;SDS011;7065;50.880;5.502;2023-06-10T12:49:24;6.20;;;5.68;;
13981;SDS011;7065;50.880;5.502;2023-06-10T12:51:51;6.43;;;5.88;;
13981;SDS011;7065;50.880;5.502;2023-06-10T12:54:17;7.28;;;6.30;;
13981;SDS011;7065;50.880;5.502;2023-06-10T12:56:43;6.93;;;6.30;;
13981;SDS011;7065;50.880;5.502;2023-06-10T12:59:09;7.03;;;6.43;;
13981;SDS011;7065;50.880;5.502;2023-06-10T13:01:35;7.45;;;6.45;;
13981;SDS011;7065;50.880;5.502;2023-06-10T13:04:02;10.30;;;6.57;;
13981;SDS011;7065;50.880;5.502;2023-06-10T13:06:31;7.25;;;6.55;;
13981;SDS011;7065;50.880;5.502;2023-06-10T13:08:58;6.93;;;6.32;;
13981;SDS011;7065;50.880;5.502;2023-06-10T13:11:24;6.50;;;5.90;;
13981;SDS011;7065;50.880;5.502;2023-06-10T13:13:50;7.68;;;6.97;;
13981;SDS011;7065;50.880;5.502;2023-06-10T13:16:16;7.55;;;6.30;;
13981;SDS011;7065;50.880;5.502;2023-06-10T13:18:42;8.52;;;6.22;;
13981;SDS011;7065;50.880;5.502;2023-06-10T13:21:08;6.53;;;5.93;;
13981;SDS011;7065;50.880;5.502;2023-06-10T13:23:33;6.45;;;5.85;;
13981;SDS011;7065;50.880;5.502;2023-06-10T13:25:59;8.70;;;6.47;;
13981;SDS011;7065;50.880;5.502;2023-06-10T13:28:25;7.25;;;6.63;;
13981;SDS011;7065;50.880;5.502;2023-06-10T13:30:51;7.18;;;6.57;;
13981;SDS011;7065;50.880;5.502;2023-06-10T13:33:17;7.72;;;6.93;;
13981;SDS011;7065;50.880;5.502;2023-06-10T13:35:43;8.80;;;6.65;;
13981;SDS011;7065;50.880;5.502;2023-06-10T13:38:09;6.70;;;6.07;;
13981;SDS011;7065;50.880;5.502;2023-06-10T13:40:34;6.28;;;5.68;;
13981;SDS011;7065;50.880;5.502;2023-06-10T13:43:00;10.48;;;5.80;;
13981;SDS011;7065;50.880;5.502;2023-06-10T13:45:26;6.15;;;5.55;;
13981;SDS011;7065;50.880;5.502;2023-06-10T13:47:53;6.63;;;5.22;;
13981;SDS011;7065;50.880;5.502;2023-06-10T13:50:18;6.53;;;5.22;;
13981;SDS011;7065;50.880;5.502;2023-06-10T13:52:44;5.95;;;5.45;;
13981;SDS011;7065;50.880;5.502;2023-06-10T13:55:10;5.57;;;5.18;;
13981;SDS011;7065;50.880;5.502;2023-06-10T13:57:36;6.05;;;5.32;;
13981;SDS011;7065;50.880;5.502;2023-06-10T14:00:02;6.65;;;5.38;;
13981;SDS011;7065;50.880;5.502;2023-06-10T14:02:28;5.78;;;5.35;;
13981;SDS011;7065;50.880;5.502;2023-06-10T14:04:53;6.20;;;5.70;;
13981;SDS011;7065;50.880;5.502;2023-06-10T14:07:19;7.07;;;5.90;;
13981;SDS011;7065;50.880;5.502;2023-06-10T14:09:45;6.10;;;5.55;;
13981;SDS011;7065;50.880;5.502;2023-06-10T14:12:10;6.45;;;5.63;;
13981;SDS011;7065;50.880;5.502;2023-06-10T14:14:37;5.90;;;5.40;;
13981;SDS011;7065;50.880;5.502;2023-06-10T14:17:03;6.30;;;5.70;;
13981;SDS011;7065;50.880;5.502;2023-06-10T14:19:30;6.07;;;5.47;;
13981;SDS011;7065;50.880;5.502;2023-06-10T14:21:55;6.05;;;5.47;;
13981;SDS011;7065;50.880;5.502;2023-06-10T14:24:21;6.75;;;6.10;;
13981;SDS011;7065;50.880;5.502;2023-06-10T14:26:47;5.80;;;5.25;;
13981;SDS011;7065;50.880;5.502;2023-06-10T14:29:13;5.72;;;5.32;;
13981;SDS011;7065;50.880;5.502;2023-06-10T14:31:39;6.80;;;5.63;;
13981;SDS011;7065;50.880;5.502;2023-06-10T14:34:05;6.40;;;5.85;;
13981;SDS011;7065;50.880;5.502;2023-06-10T14:36:32;6.63;;;6.05;;
13981;SDS011;7065;50.880;5.502;2023-06-10T14:38:58;6.65;;;6.15;;
13981;SDS011;7065;50.880;5.502;2023-06-10T14:41:25;7.10;;;6.47;;
13981;SDS011;7065;50.880;5.502;2023-06-10T14:43:51;6.20;;;5.70;;
13981;SDS011;7065;50.880;5.502;2023-06-10T14:46:17;6.47;;;5.80;;
13981;SDS011;7065;50.880;5.502;2023-06-10T14:48:43;6.20;;;5.70;;
13981;SDS011;7065;50.880;5.502;2023-06-10T14:51:09;6.20;;;5.70;;
13981;SDS011;7065;50.880;5.502;2023-06-10T14:53:35;6.88;;;6.25;;
13981;SDS011;7065;50.880;5.502;2023-06-10T14:56:00;7.30;;;6.40;;
13981;SDS011;7065;50.880;5.502;2023-06-10T14:58:26;7.18;;;6.50;;
13981;SDS011;7065;50.880;5.502;2023-06-10T15:00:52;7.97;;;7.13;;
13981;SDS011;7065;50.880;5.502;2023-06-10T15:03:17;6.85;;;6.25;;
13981;SDS011;7065;50.880;5.502;2023-06-10T15:05:43;6.95;;;6.35;;
13981;SDS011;7065;50.880;5.502;2023-06-10T15:08:08;7.80;;;7.00;;
13981;SDS011;7065;50.880;5.502;2023-06-10T15:10:34;7.43;;;6.82;;
13981;SDS011;7065;50.880;5.502;2023-06-10T15:13:00;7.25;;;6.65;;
13981;SDS011;7065;50.880;5.502;2023-06-10T15:15:26;7.15;;;6.45;;